Time;durP1;ratioP1;P1;durP2;ratioP2;P2;SDS_P1;SDS_P2;PMS_P1;PMS_P2;Temp;Humidity;BMP_temperature;BMP_pressure;BME280_temperature;BME280_humidity;BME280_pressure;Samples;Min_cycle;Max_cycle;Signal;HPM_P1;HPM_P2
2021/01/07 00:00:25;;;;;;;4.43;3.17;;;4.10;1.00;;;;;;5001242;28;20205;-74
2021/01/07 00:02:52;;;;;;;4.90;2.50;;;3.90;1.00;;;;;;5013144;28;20239;-74
2021/01/07 00:05:18;;;;;;;3.93;3.03;;;4.10;1.00;;;;;;5029320;28;20216;-75
2021/01/07 00:07:44;;;;;;;7.07;2.30;;;4.00;1.00;;;;;;5028152;28;20221;-74
2021/01/07 00:10:11;;;;;;;6.43;2.87;;;4.00;1.00;;;;;;5011549;28;20199;-75
2021/01/07 00:12:37;;;;;;;8.27;3.70;;;3.90;99.90;;;;;;5015805;28;20289;-74
2021/01/07 00:15:05;;;;;;;6.23;3.33;;;3.80;99.90;;;;;;5012841;28;20247;-75
2021/01/07 00:17:31;;;;;;;5.37;2.53;;;3.90;1.00;;;;;;5011677;28;20295;-74
2021/01/07 00:19:58;;;;;;;7.93;2.87;;;3.90;1.00;;;;;;5010218;28;20229;-74
2021/01/07 00:22:24;;;;;;;4.53;2.40;;;3.80;1.00;;;;;;5015039;28;20228;-74
2021/01/07 00:24:50;;;;;;;3.40;2.30;;;3.70;29.10;;;;;;5019464;28;20304;-74
2021/01/07 00:27:17;;;;;;;3.83;2.30;;;3.90;99.90;;;;;;4999952;28;20733;-74
2021/01/07 00:29:44;;;;;;;4.80;2.20;;;3.90;1.00;;;;;;5004895;28;20285;-74
2021/01/07 00:32:10;;;;;;;3.10;2.20;;;3.90;1.00;;;;;;5019843;28;20259;-73
2021/01/07 00:34:37;;;;;;;3.33;2.10;;;3.90;1.00;;;;;;5033533;28;20197;-74
2021/01/07 00:37:03;;;;;;;3.10;2.23;;;4.10;1.00;;;;;;5024076;28;20307;-74
2021/01/07 00:39:29;;;;;;;2.77;2.30;;;4.10;1.00;;;;;;5019998;28;20350;-74
2021/01/07 00:41:57;;;;;;;3.83;2.20;;;4.10;1.00;;;;;;5018100;28;20234;-74
2021/01/07 00:44:24;;;;;;;2.47;1.73;;;4.10;1.00;;;;;;5017064;28;20209;-74
2021/01/07 00:46:51;;;;;;;5.27;2.17;;;4.10;8.30;;;;;;5050501;28;20240;-75
2021/01/07 00:49:18;;;;;;;4.20;2.13;;;4.10;1.00;;;;;;5017682;28;20248;-74
2021/01/07 00:51:44;;;;;;;3.67;2.33;;;4.10;99.90;;;;;;5004304;28;20271;-75
2021/01/07 00:54:11;;;;;;;2.67;2.10;;;4.10;1.00;;;;;;5023559;28;20204;-74
2021/01/07 00:56:38;;;;;;;6.07;1.90;;;4.00;99.90;;;;;;5015090;28;20197;-74
2021/01/07 00:59:05;;;;;;;2.03;1.70;;;4.10;1.00;;;;;;5009046;28;20272;-74
2021/01/07 01:01:33;;;;;;;3.53;2.27;;;4.00;68.80;;;;;;5015640;28;20209;-74
2021/01/07 01:04:00;;;;;;;3.53;2.00;;;4.00;1.00;;;;;;5017867;28;20253;-74
2021/01/07 01:06:31;;;;;;;5.20;2.33;;;4.00;1.00;;;;;;5017248;28;20210;-73
2021/01/07 01:08:57;;;;;;;3.30;2.60;;;4.00;1.00;;;;;;5021184;28;20652;-74
2021/01/07 01:11:24;;;;;;;7.73;1.93;;;4.00;99.90;;;;;;5018870;28;20475;-74
2021/01/07 01:13:50;;;;;;;7.23;1.83;;;3.90;1.00;;;;;;5017164;28;20659;-74
2021/01/07 01:16:17;;;;;;;4.20;2.13;;;3.90;99.90;;;;;;5017865;28;20273;-73
2021/01/07 01:18:44;;;;;;;5.53;1.97;;;4.00;1.00;;;;;;5016995;28;20295;-75
2021/01/07 01:21:10;;;;;;;3.87;1.80;;;3.80;99.90;;;;;;5021262;28;20327;-74
2021/01/07 01:23:36;;;;;;;5.33;2.20;;;3.70;99.90;;;;;;5018720;28;20201;-74
2021/01/07 01:26:03;;;;;;;2.90;2.10;;;3.70;99.90;;;;;;5016879;28;20204;-75
2021/01/07 01:28:29;;;;;;;3.03;2.37;;;3.80;1.00;;;;;;5016662;28;20871;-73
2021/01/07 01:30:55;;;;;;;3.03;1.43;;;3.90;1.00;;;;;;5048798;28;20251;-74
2021/01/07 01:33:22;;;;;;;3.60;1.73;;;4.00;1.00;;;;;;5008490;28;20201;-74
2021/01/07 01:35:48;;;;;;;5.13;2.63;;;4.00;1.00;;;;;;5016739;28;20288;-74
2021/01/07 01:38:15;;;;;;;3.60;2.33;;;4.00;1.00;;;;;;5017426;28;20212;-74
2021/01/07 01:40:42;;;;;;;3.13;2.20;;;3.80;99.90;;;;;;5050561;28;20296;-75
2021/01/07 01:43:08;;;;;;;4.90;2.53;;;3.80;99.90;;;;;;5016024;28;20258;-73
2021/01/07 01:45:35;;;;;;;2.93;1.87;;;3.70;94.30;;;;;;5008000;28;21165;-73
2021/01/07 01:48:02;;;;;;;5.10;2.03;;;3.80;99.90;;;;;;5020999;28;20691;-74
2021/01/07 01:50:28;;;;;;;3.53;2.17;;;3.90;1.00;;;;;;5020529;28;20276;-74
2021/01/07 01:52:54;;;;;;;2.60;2.07;;;3.80;1.00;;;;;;5015595;28;20214;-74
2021/01/07 01:55:21;;;;;;;2.27;1.87;;;3.70;1.00;;;;;;5017644;28;20225;-74
2021/01/07 01:57:48;;;;;;;7.33;2.83;;;3.80;1.00;;;;;;5050509;28;20205;-74
2021/01/07 02:00:15;;;;;;;2.57;2.07;;;3.80;1.00;;;;;;5019160;28;20703;-74
2021/01/07 02:02:41;;;;;;;3.80;2.37;;;3.90;1.00;;;;;;5017677;28;20238;-74
2021/01/07 02:05:08;;;;;;;3.03;2.40;;;3.70;99.90;;;;;;5014911;28;20266;-74
2021/01/07 02:07:37;;;;;;;2.67;2.17;;;3.50;1.00;;;;;;5017677;28;20299;-74
2021/01/07 02:10:04;;;;;;;2.63;1.90;;;3.70;1.00;;;;;;5017429;28;20292;-74
2021/01/07 02:12:31;;;;;;;5.27;2.07;;;3.70;1.00;;;;;;5048116;28;20250;-74
2021/01/07 02:14:57;;;;;;;4.63;2.70;;;3.70;1.00;;;;;;5003243;28;20298;-73
2021/01/07 02:17:23;;;;;;;3.43;2.33;;;3.60;1.00;;;;;;5018333;28;20953;-74
2021/01/07 02:19:50;;;;;;;5.87;3.30;;;3.50;1.00;;;;;;5004757;28;20233;-75
2021/01/07 02:22:16;;;;;;;2.80;2.10;;;3.60;1.00;;;;;;5013931;28;21004;-74
2021/01/07 02:24:42;;;;;;;3.77;2.67;;;3.60;1.00;;;;;;5031921;28;20303;-74
2021/01/07 02:27:10;;;;;;;3.83;2.33;;;3.70;1.00;;;;;;5020584;28;20274;-74
2021/01/07 02:29:38;;;;;;;4.70;2.97;;;3.70;1.00;;;;;;5014547;28;20220;-75
2021/01/07 02:32:06;;;;;;;5.47;2.33;;;3.50;1.00;;;;;;5016366;28;20211;-74
2021/01/07 02:34:32;;;;;;;4.00;2.50;;;3.40;1.00;;;;;;5014590;28;20205;-75
2021/01/07 02:36:59;;;;;;;3.30;2.53;;;3.50;1.00;;;;;;5018398;28;22158;-73
2021/01/07 02:39:25;;;;;;;3.93;2.37;;;3.60;1.00;;;;;;5017184;28;20301;-73
2021/01/07 02:41:53;;;;;;;4.20;2.43;;;3.60;1.00;;;;;;5013780;28;20590;-73
2021/01/07 02:44:23;;;;;;;3.43;2.50;;;3.70;1.00;;;;;;5019548;28;20581;-74
2021/01/07 02:46:50;;;;;;;4.13;1.90;;;3.70;1.00;;;;;;5017415;28;20302;-74
2021/01/07 02:49:17;;;;;;;4.53;2.63;;;3.70;1.00;;;;;;5001825;28;20204;-74
2021/01/07 02:51:43;;;;;;;4.23;2.33;;;3.70;1.00;;;;;;5029457;28;20225;-73
2021/01/07 02:54:10;;;;;;;4.77;2.50;;;3.70;1.00;;;;;;5028642;28;20640;-74
2021/01/07 02:56:36;;;;;;;4.20;1.97;;;3.70;1.00;;;;;;5014816;28;20601;-75
2021/01/07 02:59:03;;;;;;;4.67;2.57;;;3.80;1.00;;;;;;5015507;28;20343;-75
2021/01/07 03:01:29;;;;;;;8.10;2.77;;;3.90;1.00;;;;;;5016816;28;20292;-74
2021/01/07 03:03:56;;;;;;;3.17;2.57;;;3.70;1.00;;;;;;5021276;28;20300;-75
2021/01/07 03:06:25;;;;;;;4.93;3.10;;;3.50;1.00;;;;;;5003170;28;20481;-74
2021/01/07 03:08:52;;;;;;;2.80;2.27;;;3.40;68.50;;;;;;5017346;28;21947;-75
2021/01/07 03:11:19;;;;;;;3.90;2.87;;;3.70;68.80;;;;;;5021451;28;20247;-75
2021/01/07 03:13:45;;;;;;;3.10;2.17;;;3.50;10.20;;;;;;5014459;28;20267;-75
2021/01/07 03:16:12;;;;;;;5.37;2.47;;;3.50;56.30;;;;;;5012831;28;20212;-74
2021/01/07 03:18:38;;;;;;;3.33;2.60;;;3.80;47.90;;;;;;5031628;28;20266;-74
2021/01/07 03:21:05;;;;;;;3.13;2.43;;;3.90;7.50;;;;;;5014579;28;20234;-75
2021/01/07 03:23:32;;;;;;;4.20;2.20;;;3.80;1.00;;;;;;5016532;28;20208;-74
2021/01/07 03:25:58;;;;;;;4.37;2.43;;;3.90;1.00;;;;;;5014878;28;20586;-75
2021/01/07 03:28:25;;;;;;;2.57;2.23;;;3.70;1.00;;;;;;5012636;28;20217;-74
2021/01/07 03:30:52;;;;;;;3.13;2.10;;;3.60;1.00;;;;;;5012840;28;20285;-75
2021/01/07 03:33:19;;;;;;;4.00;2.00;;;3.50;1.00;;;;;;5025806;28;20280;-74
2021/01/07 03:35:45;;;;;;;4.10;2.53;;;3.50;48.30;;;;;;5015225;28;20294;-75
2021/01/07 03:38:12;;;;;;;3.37;2.03;;;3.50;67.80;;;;;;5030366;28;20526;-74
2021/01/07 03:40:39;;;;;;;2.87;1.90;;;3.50;92.90;;;;;;5017093;28;20288;-74
2021/01/07 03:43:05;;;;;;;2.53;1.93;;;3.60;71.80;;;;;;5017079;28;20877;-74
2021/01/07 03:45:31;;;;;;;4.67;2.70;;;3.50;73.20;;;;;;5013817;28;20202;-74
2021/01/07 03:47:58;;;;;;;3.73;2.00;;;3.60;94.20;;;;;;5004017;28;20276;-74
2021/01/07 03:50:24;;;;;;;3.87;2.07;;;3.60;99.90;;;;;;5014692;28;20201;-75
2021/01/07 03:52:50;;;;;;;5.27;3.03;;;3.60;79.50;;;;;;5017150;28;20198;-75
2021/01/07 03:55:16;;;;;;;7.17;3.00;;;3.60;85.70;;;;;;5012938;28;20204;-74
2021/01/07 03:57:43;;;;;;;4.47;2.53;;;3.60;90.90;;;;;;5014962;28;20239;-73
2021/01/07 04:00:10;;;;;;;3.70;2.70;;;3.60;99.90;;;;;;5030107;28;20260;-74
2021/01/07 04:02:36;;;;;;;6.23;2.60;;;3.60;91.30;;;;;;5033119;28;20247;-73
2021/01/07 04:05:03;;;;;;;3.70;2.50;;;3.60;99.90;;;;;;5017259;28;20255;-73
2021/01/07 04:07:30;;;;;;;5.00;2.60;;;3.80;99.90;;;;;;5032699;28;20216;-74
2021/01/07 04:09:56;;;;;;;8.00;2.90;;;3.50;74.00;;;;;;5003133;28;20189;-74
2021/01/07 04:12:22;;;;;;;6.67;2.83;;;3.40;99.90;;;;;;5033081;28;20239;-74
2021/01/07 04:15:01;;;;;;;4.53;3.23;;;3.40;99.90;;;;;;5022199;28;20205;-73
2021/01/07 04:17:27;;;;;;;6.77;2.93;;;3.80;99.90;;;;;;5019437;28;20215;-74
2021/01/07 04:19:54;;;;;;;4.50;2.73;;;3.60;99.90;;;;;;5015398;28;20318;-74
2021/01/07 04:22:20;;;;;;;3.83;3.07;;;3.50;99.90;;;;;;5022891;28;20334;-74
2021/01/07 04:24:46;;;;;;;8.23;3.27;;;3.80;99.90;;;;;;5004556;28;20287;-74
2021/01/07 04:27:13;;;;;;;8.17;2.50;;;3.90;99.90;;;;;;5017863;28;20210;-74
2021/01/07 04:29:39;;;;;;;3.40;2.60;;;3.90;99.90;;;;;;5014853;28;20197;-74
2021/01/07 04:32:05;;;;;;;3.00;2.70;;;3.70;76.80;;;;;;5018248;28;20287;-74
2021/01/07 04:34:32;;;;;;;3.20;2.67;;;3.60;90.50;;;;;;5028211;28;20849;-74
2021/01/07 04:36:59;;;;;;;7.20;3.10;;;3.80;99.90;;;;;;5018060;28;20247;-74
2021/01/07 04:39:25;;;;;;;3.60;2.80;;;3.80;95.60;;;;;;5018804;28;21367;-74
2021/01/07 04:41:51;;;;;;;5.87;2.90;;;3.90;99.90;;;;;;5021277;28;20209;-74
2021/01/07 04:44:21;;;;;;;5.27;2.43;;;4.00;62.30;;;;;;5002495;28;20201;-74
2021/01/07 04:46:47;;;;;;;3.87;3.07;;;3.80;35.30;;;;;;5016965;28;20260;-74
2021/01/07 04:49:14;;;;;;;3.97;3.40;;;3.80;73.10;;;;;;5013214;28;20324;-74
2021/01/07 04:51:40;;;;;;;6.37;3.90;;;3.90;55.60;;;;;;5004388;28;20201;-74
2021/01/07 04:54:07;;;;;;;4.70;3.17;;;3.90;29.70;;;;;;5005854;28;20664;-75
2021/01/07 04:56:34;;;;;;;3.77;2.83;;;3.70;77.40;;;;;;5022200;28;20629;-74
2021/01/07 04:59:00;;;;;;;3.80;3.13;;;3.90;99.90;;;;;;5015796;28;20280;-74
2021/01/07 05:01:26;;;;;;;6.40;3.10;;;3.90;73.30;;;;;;5047955;28;20237;-74
2021/01/07 05:03:53;;;;;;;3.93;3.53;;;3.90;75.90;;;;;;5016328;28;21978;-74
2021/01/07 05:06:24;;;;;;;4.07;2.50;;;3.80;48.10;;;;;;5020205;28;20516;-74
2021/01/07 05:09:03;;;;;;;3.73;3.07;;;3.60;99.90;;;;;;5013817;28;20209;-74
2021/01/07 05:11:30;;;;;;;4.13;2.90;;;3.50;98.80;;;;;;5023455;28;20358;-74
2021/01/07 05:14:04;;;;;;;6.87;3.60;;;3.30;99.90;;;;;;5023000;28;20657;-74
2021/01/07 05:16:31;;;;;;;5.10;4.20;;;3.40;99.90;;;;;;5031734;28;20207;-74
2021/01/07 05:19:01;;;;;;;5.27;4.30;;;3.30;99.90;;;;;;5013986;28;20231;-74
2021/01/07 05:21:28;;;;;;;6.10;4.80;;;3.20;99.90;;;;;;5014744;28;20246;-74
2021/01/07 05:23:57;;;;;;;6.10;4.03;;;3.40;99.90;;;;;;5014847;28;20239;-74
2021/01/07 05:26:24;;;;;;;5.47;4.43;;;3.30;99.90;;;;;;5032968;28;20206;-74
2021/01/07 05:28:53;;;;;;;6.20;4.17;;;3.40;99.90;;;;;;5020371;28;21104;-74
2021/01/07 05:31:21;;;;;;;5.37;4.57;;;3.40;99.90;;;;;;5019831;28;20204;-74
2021/01/07 05:33:47;;;;;;;6.20;4.77;;;3.40;99.90;;;;;;5019271;28;20243;-74
2021/01/07 05:36:28;;;;;;;6.90;4.90;;;3.30;99.90;;;;;;5004091;28;20279;-74
2021/01/07 05:39:01;;;;;;;7.03;4.60;;;3.40;99.90;;;;;;5015161;28;20216;-74
2021/01/07 05:41:28;;;;;;;8.17;4.73;;;3.50;99.90;;;;;;5019692;28;20647;-72
2021/01/07 05:44:00;;;;;;;5.67;4.13;;;3.50;99.90;;;;;;5020262;28;20201;-74
2021/01/07 05:46:28;;;;;;;6.13;4.00;;;3.50;99.90;;;;;;5015159;28;20627;-72
2021/01/07 05:48:56;;;;;;;8.03;4.73;;;3.30;99.90;;;;;;5047340;28;20219;-72
2021/01/07 05:51:28;;;;;;;4.80;3.67;;;3.30;99.90;;;;;;5020130;28;20217;-71
2021/01/07 05:53:57;;;;;;;4.80;3.37;;;3.40;99.90;;;;;;5014036;28;21065;-75
2021/01/07 05:56:25;;;;;;;7.53;3.97;;;3.40;99.90;;;;;;5030842;28;20228;-74
2021/01/07 05:58:55;;;;;;;4.97;3.77;;;3.50;99.90;;;;;;5028362;28;20446;-74
2021/01/07 06:01:23;;;;;;;4.90;3.60;;;3.60;99.90;;;;;;5032185;28;20203;-71
2021/01/07 06:03:53;;;;;;;6.47;3.87;;;3.70;99.90;;;;;;5048724;28;20236;-74
2021/01/07 06:06:22;;;;;;;5.57;3.23;;;3.60;99.90;;;;;;5013537;28;20243;-74
2021/01/07 06:08:54;;;;;;;5.10;2.83;;;3.60;99.90;;;;;;5026986;28;20221;-74
2021/01/07 06:11:23;;;;;;;3.93;3.10;;;3.70;99.90;;;;;;5013099;28;20214;-74
2021/01/07 06:13:51;;;;;;;5.80;3.30;;;3.50;99.90;;;;;;5017246;28;20264;-72
2021/01/07 06:16:23;;;;;;;4.50;3.00;;;3.30;99.90;;;;;;5014718;28;20618;-74
2021/01/07 06:18:49;;;;;;;4.60;3.40;;;3.50;99.90;;;;;;5013721;28;20234;-75
2021/01/07 06:21:17;;;;;;;4.07;3.30;;;3.50;99.90;;;;;;5016829;28;20250;-74
2021/01/07 06:23:45;;;;;;;4.27;3.00;;;3.50;99.90;;;;;;5033375;28;20679;-75
2021/01/07 06:26:27;;;;;;;7.07;4.30;;;3.30;99.90;;;;;;5016951;28;20210;-74
2021/01/07 06:28:59;;;;;;;5.93;4.17;;;3.30;99.90;;;;;;5015208;28;20244;-75
2021/01/07 06:31:55;;;;;;;6.23;4.23;;;3.20;99.90;;;;;;5016505;28;20708;-74
2021/01/07 06:34:26;;;;;;;6.57;4.87;;;3.30;99.90;;;;;;5019843;28;20232;-75
2021/01/07 06:36:53;;;;;;;6.60;4.30;;;3.30;99.90;;;;;;5015646;28;20327;-74
2021/01/07 06:39:23;;;;;;;5.53;4.10;;;3.40;99.90;;;;;;5026441;28;20279;-75
2021/01/07 06:41:53;;;;;;;6.10;4.07;;;3.40;99.90;;;;;;5015667;28;20255;-76
2021/01/07 06:44:20;;;;;;;5.57;4.07;;;3.30;99.90;;;;;;5000159;28;20213;-74
2021/01/07 06:46:48;;;;;;;8.57;5.27;;;3.20;99.90;;;;;;5013505;28;20228;-74
2021/01/07 06:49:21;;;;;;;7.70;5.07;;;3.20;99.90;;;;;;5014858;28;21097;-75
2021/01/07 06:51:54;;;;;;;7.10;4.57;;;3.20;99.90;;;;;;5012117;28;20212;-72
2021/01/07 06:54:23;;;;;;;13.77;4.93;;;3.10;99.90;;;;;;5012599;28;20217;-75
2021/01/07 06:56:52;;;;;;;5.67;4.37;;;3.30;99.90;;;;;;5050059;28;20236;-72
2021/01/07 06:59:21;;;;;;;7.53;4.63;;;3.30;99.90;;;;;;5018260;28;20196;-73
2021/01/07 07:01:50;;;;;;;6.80;5.07;;;3.30;99.90;;;;;;5043415;28;20229;-74
2021/01/07 07:04:30;;;;;;;7.67;5.30;;;3.40;99.90;;;;;;5018906;28;20209;-74
2021/01/07 07:07:15;;;;;;;7.93;5.50;;;3.30;99.90;;;;;;5012545;28;20228;-74
2021/01/07 07:09:44;;;;;;;7.63;5.67;;;3.20;99.90;;;;;;5016168;28;20233;-72
2021/01/07 07:12:30;;;;;;;7.80;6.23;;;3.50;99.90;;;;;;5018466;28;20200;-71
2021/01/07 07:14:59;;;;;;;8.30;5.80;;;3.50;99.90;;;;;;5012504;28;20193;-72
2021/01/07 07:17:28;;;;;;;8.73;6.07;;;3.50;99.90;;;;;;5014081;28;20637;-74
2021/01/07 07:19:54;;;;;;;10.37;6.03;;;3.30;99.90;;;;;;5016394;28;20224;-74
2021/01/07 07:22:20;;;;;;;10.43;5.97;;;3.40;99.90;;;;;;5012825;28;20267;-75
2021/01/07 07:24:50;;;;;;;9.53;6.73;;;3.50;99.90;;;;;;5015693;28;20303;-74
2021/01/07 07:27:18;;;;;;;9.57;5.90;;;3.60;99.90;;;;;;5014237;28;20220;-74
2021/01/07 07:29:48;;;;;;;8.87;5.17;;;3.70;99.90;;;;;;5012913;28;20221;-76
2021/01/07 07:32:24;;;;;;;7.10;4.60;;;3.80;99.90;;;;;;5047402;28;20185;-71
2021/01/07 07:34:51;;;;;;;6.97;4.67;;;4.00;99.90;;;;;;5015615;28;20603;-75
2021/01/07 07:37:25;;;;;;;6.03;3.97;;;3.90;99.90;;;;;;5014181;28;20287;-72
2021/01/07 07:40:03;;;;;;;4.93;3.83;;;3.90;99.90;;;;;;5022705;28;20205;-72
2021/01/07 07:42:30;;;;;;;6.97;4.30;;;4.00;99.90;;;;;;5015848;28;20700;-72
2021/01/07 07:44:59;;;;;;;4.83;3.43;;;3.90;99.90;;;;;;5022204;28;20584;-72
2021/01/07 07:47:26;;;;;;;4.07;3.63;;;4.00;99.90;;;;;;5032169;28;20202;-72
2021/01/07 07:49:58;;;;;;;5.63;3.17;;;4.00;99.90;;;;;;5029228;28;20228;-75
2021/01/07 07:52:26;;;;;;;4.20;2.80;;;3.90;99.90;;;;;;5043348;28;20250;-72
2021/01/07 07:55:03;;;;;;;5.20;3.30;;;3.80;99.90;;;;;;5030583;28;21168;-72
2021/01/07 07:57:32;;;;;;;7.07;3.20;;;3.90;99.90;;;;;;5014939;28;20687;-72
2021/01/07 08:00:16;;;;;;;3.87;2.30;;;3.80;99.90;;;;;;5016648;28;20217;-76
2021/01/07 08:02:43;;;;;;;3.57;2.43;;;3.80;99.90;;;;;;5015420;28;20272;-72
2021/01/07 08:05:30;;;;;;;3.37;2.73;;;4.00;99.90;;;;;;5012716;28;20211;-73
2021/01/07 08:07:57;;;;;;;3.50;2.47;;;3.90;99.90;;;;;;5035047;28;20216;-73
2021/01/07 08:10:25;;;;;;;3.30;2.43;;;4.00;99.90;;;;;;5012025;28;20335;-72
2021/01/07 08:12:52;;;;;;;3.93;2.37;;;4.10;99.90;;;;;;5016251;28;20542;-73
2021/01/07 08:15:31;;;;;;;4.33;2.30;;;4.20;99.90;;;;;;5006519;28;20205;-73
2021/01/07 08:18:19;;;;;;;3.13;2.07;;;4.00;99.90;;;;;;5017745;28;20236;-72
2021/01/07 08:20:46;;;;;;;3.60;1.80;;;4.10;99.90;;;;;;5043751;28;20307;-73
2021/01/07 08:23:14;;;;;;;3.00;2.43;;;4.20;99.90;;;;;;5047082;28;20201;-73
2021/01/07 08:25:45;;;;;;;3.77;2.40;;;4.30;99.90;;;;;;5006995;28;20213;-73
2021/01/07 08:28:41;;;;;;;3.23;2.47;;;4.30;99.90;;;;;;5015837;28;20214;-72
2021/01/07 08:31:19;;;;;;;3.57;2.63;;;4.40;99.90;;;;;;5015191;28;20193;-71
2021/01/07 08:33:50;;;;;;;3.73;2.33;;;4.30;99.90;;;;;;5013712;28;20286;-71
2021/01/07 08:36:19;;;;;;;3.97;2.57;;;4.30;99.90;;;;;;5019416;28;20683;-71
2021/01/07 08:38:54;;;;;;;3.67;2.57;;;4.20;99.90;;;;;;5031882;28;20879;-72
2021/01/07 08:41:20;;;;;;;4.30;2.30;;;4.20;99.90;;;;;;5018620;28;20602;-72
2021/01/07 08:43:50;;;;;;;3.93;2.40;;;4.00;99.90;;;;;;5030304;28;20805;-72
2021/01/07 08:46:17;;;;;;;3.97;2.07;;;4.20;99.90;;;;;;5019213;28;20207;-74
2021/01/07 08:48:45;;;;;;;3.30;2.47;;;4.20;99.90;;;;;;5024858;28;20264;-72
2021/01/07 08:51:20;;;;;;;4.10;2.40;;;4.00;99.90;;;;;;4999078;28;20209;-72
2021/01/07 08:53:47;;;;;;;2.87;2.17;;;4.30;99.90;;;;;;5022767;28;20291;-73
2021/01/07 08:56:37;;;;;;;2.73;2.13;;;3.90;99.90;;;;;;5017398;28;20301;-74
2021/01/07 08:59:39;;;;;;;3.33;2.30;;;3.90;99.90;;;;;;5020235;28;20216;-73
2021/01/07 09:02:08;;;;;;;3.30;2.37;;;3.90;99.90;;;;;;5020112;28;20244;-73
2021/01/07 09:04:43;;;;;;;3.10;2.23;;;4.30;99.90;;;;;;5013936;28;20212;-73
2021/01/07 09:07:18;;;;;;;4.07;2.40;;;4.30;99.90;;;;;;5020609;28;20205;-72
2021/01/07 09:09:48;;;;;;;3.27;2.43;;;4.20;99.90;;;;;;5020581;28;20728;-73
2021/01/07 09:12:18;;;;;;;2.90;2.37;;;4.30;99.90;;;;;;5034729;28;20201;-72
2021/01/07 09:14:50;;;;;;;4.33;2.50;;;4.20;99.90;;;;;;5027347;28;20193;-73
2021/01/07 09:17:18;;;;;;;4.77;2.83;;;4.20;99.90;;;;;;5026876;28;20209;-73
2021/01/07 09:19:45;;;;;;;2.27;1.73;;;4.40;99.90;;;;;;5018947;28;20197;-73
2021/01/07 09:22:19;;;;;;;3.57;2.20;;;4.50;99.90;;;;;;5030966;28;20263;-73
2021/01/07 09:24:46;;;;;;;2.23;1.83;;;4.50;99.90;;;;;;5004762;28;20197;-73
2021/01/07 09:27:17;;;;;;;2.73;2.10;;;4.50;99.90;;;;;;5018292;28;20202;-73
2021/01/07 09:29:44;;;;;;;2.33;1.93;;;4.50;99.90;;;;;;5016808;28;20206;-74
2021/01/07 09:32:12;;;;;;;2.73;1.80;;;4.70;99.90;;;;;;5005945;28;20208;-74
2021/01/07 09:34:39;;;;;;;3.70;1.50;;;4.70;99.90;;;;;;5014987;28;20194;-73
2021/01/07 09:37:07;;;;;;;3.60;1.80;;;4.70;99.90;;;;;;5022762;28;20618;-74
2021/01/07 09:39:34;;;;;;;2.43;1.23;;;4.50;99.90;;;;;;5029172;28;20223;-73
2021/01/07 09:42:01;;;;;;;1.37;1.00;;;4.70;99.90;;;;;;5020923;28;20218;-76
2021/01/07 09:44:27;;;;;;;1.90;1.13;;;4.50;99.90;;;;;;5034400;28;20691;-72
2021/01/07 09:46:56;;;;;;;2.80;1.30;;;4.50;99.90;;;;;;5019217;28;20268;-73
2021/01/07 09:49:23;;;;;;;1.20;1.10;;;4.30;99.90;;;;;;5016034;28;20266;-73
2021/01/07 09:51:50;;;;;;;2.10;1.60;;;4.40;99.90;;;;;;5002360;28;21349;-73
2021/01/07 09:54:17;;;;;;;1.90;1.53;;;4.30;99.90;;;;;;5003953;28;20216;-73
2021/01/07 09:56:44;;;;;;;2.27;1.60;;;4.40;99.90;;;;;;5016492;28;20205;-73
2021/01/07 09:59:11;;;;;;;2.43;1.60;;;4.10;99.90;;;;;;5007488;28;20267;-72
2021/01/07 10:01:37;;;;;;;1.57;1.47;;;3.90;99.90;;;;;;5014515;28;20259;-73
2021/01/07 10:04:04;;;;;;;2.07;1.57;;;4.10;99.90;;;;;;5013263;28;20213;-72
2021/01/07 10:06:31;;;;;;;1.77;1.40;;;3.90;99.90;;;;;;5019445;28;20198;-72
2021/01/07 10:08:57;;;;;;;2.03;1.63;;;4.20;99.90;;;;;;5014142;28;20221;-72
2021/01/07 10:11:24;;;;;;;1.73;1.20;;;4.30;99.90;;;;;;5001763;28;20204;-72
2021/01/07 10:13:50;;;;;;;2.10;1.57;;;4.30;99.90;;;;;;5004832;28;20259;-71
2021/01/07 10:16:17;;;;;;;3.10;1.20;;;4.50;99.90;;;;;;5015132;28;20283;-73
2021/01/07 10:18:43;;;;;;;1.77;1.47;;;4.50;99.90;;;;;;5031159;28;20209;-71
2021/01/07 10:21:15;;;;;;;1.03;0.97;;;4.60;99.90;;;;;;5013179;28;20296;-72
2021/01/07 10:23:43;;;;;;;1.53;1.27;;;4.60;99.90;;;;;;5046203;28;20736;-71
2021/01/07 10:26:10;;;;;;;3.63;1.40;;;4.60;99.90;;;;;;5014238;28;20260;-74
2021/01/07 10:28:37;;;;;;;1.43;1.10;;;4.60;99.90;;;;;;5011342;28;20305;-72
2021/01/07 10:31:05;;;;;;;1.80;1.40;;;4.50;99.90;;;;;;5015012;28;20271;-72
2021/01/07 10:33:32;;;;;;;2.07;1.70;;;4.50;99.90;;;;;;5014408;28;20206;-72
2021/01/07 10:35:59;;;;;;;1.70;1.60;;;4.40;99.90;;;;;;5012070;28;20217;-72
2021/01/07 10:38:27;;;;;;;2.50;1.50;;;4.40;99.90;;;;;;5017181;28;20232;-72
2021/01/07 10:40:54;;;;;;;1.57;1.40;;;4.50;99.90;;;;;;5016242;28;20353;-75
2021/01/07 10:43:22;;;;;;;2.00;1.47;;;4.60;99.90;;;;;;5018072;28;20292;-72
2021/01/07 10:45:51;;;;;;;1.90;1.60;;;4.70;99.90;;;;;;5013936;28;20216;-71
2021/01/07 10:48:20;;;;;;;4.97;2.10;;;4.50;99.90;;;;;;5014961;28;20226;-71
2021/01/07 10:50:48;;;;;;;2.30;2.10;;;4.60;99.90;;;;;;5016019;28;20373;-73
2021/01/07 10:53:26;;;;;;;2.93;1.73;;;4.50;99.90;;;;;;5014179;28;20231;-72
2021/01/07 10:55:58;;;;;;;1.87;1.73;;;4.60;99.90;;;;;;5021050;28;20274;-73
2021/01/07 10:58:33;;;;;;;2.70;2.00;;;4.60;99.90;;;;;;5016575;28;20676;-72
2021/01/07 11:01:43;;;;;;;2.80;1.87;;;4.50;99.90;;;;;;5015964;28;20519;-72
2021/01/07 11:04:24;;;;;;;1.60;1.50;;;4.60;99.90;;;;;;4999388;28;20310;-73
2021/01/07 11:07:04;;;;;;;2.83;1.77;;;4.60;99.90;;;;;;5018251;28;20239;-73
2021/01/07 11:09:37;;;;;;;2.83;1.93;;;4.60;99.90;;;;;;5009430;28;20658;-73
2021/01/07 11:12:12;;;;;;;2.77;1.47;;;4.60;99.90;;;;;;5016614;28;20286;-74
2021/01/07 11:14:54;;;;;;;4.27;2.03;;;4.70;99.90;;;;;;5017951;28;20297;-73
2021/01/07 11:17:24;;;;;;;3.43;1.87;;;4.70;99.90;;;;;;5023305;28;20229;-73
2021/01/07 11:19:52;;;;;;;2.33;1.63;;;4.60;99.90;;;;;;5015674;28;20680;-74
2021/01/07 11:22:25;;;;;;;1.97;1.73;;;4.60;99.90;;;;;;5017212;28;20242;-73
2021/01/07 11:24:51;;;;;;;2.30;1.73;;;4.60;99.90;;;;;;5017783;28;20308;-73
2021/01/07 11:27:18;;;;;;;2.33;1.60;;;4.60;99.90;;;;;;5022622;28;20223;-73
2021/01/07 11:29:44;;;;;;;2.47;2.07;;;4.70;99.90;;;;;;5057187;28;20567;-72
2021/01/07 11:32:12;;;;;;;3.33;1.70;;;4.60;99.90;;;;;;5017495;28;20213;-73
2021/01/07 11:34:38;;;;;;;2.20;1.90;;;4.50;99.90;;;;;;5016048;28;20307;-73
2021/01/07 11:37:22;;;;;;;1.87;1.77;;;4.50;99.90;;;;;;5014495;28;20232;-73
2021/01/07 11:39:58;;;;;;;1.77;1.30;;;4.70;99.90;;;;;;5013500;28;20209;-72
2021/01/07 11:42:36;;;;;;;1.47;1.37;;;4.60;99.90;;;;;;5032795;28;20211;-74
2021/01/07 11:45:06;;;;;;;0.83;0.83;;;4.60;99.90;;;;;;5015974;28;20303;-75
2021/01/07 11:47:38;;;;;;;2.43;1.40;;;4.60;99.90;;;;;;5032404;28;20260;-74
2021/01/07 11:50:08;;;;;;;1.17;1.07;;;4.60;99.90;;;;;;5013957;28;20227;-73
2021/01/07 11:52:37;;;;;;;1.40;0.90;;;4.60;99.90;;;;;;5030162;28;20258;-73
2021/01/07 11:55:04;;;;;;;3.07;0.67;;;4.50;99.90;;;;;;5013006;28;20607;-74
2021/01/07 11:57:35;;;;;;;1.03;0.63;;;4.60;99.90;;;;;;5033523;28;20694;-73
2021/01/07 12:00:05;;;;;;;0.73;0.73;;;4.60;99.90;;;;;;5028928;28;20919;-74
2021/01/07 12:02:32;;;;;;;0.70;0.60;;;4.50;99.90;;;;;;5016189;28;20605;-73
2021/01/07 12:05:00;;;;;;;2.57;0.80;;;4.40;99.90;;;;;;5015667;28;21850;-73
2021/01/07 12:07:41;;;;;;;1.67;0.80;;;4.50;99.90;;;;;;4999923;28;20263;-73
2021/01/07 12:10:09;;;;;;;3.63;1.00;;;4.60;99.90;;;;;;5016778;28;20259;-73
2021/01/07 12:12:49;;;;;;;0.80;0.50;;;4.50;99.90;;;;;;5012055;28;20656;-73
2021/01/07 12:15:35;;;;;;;1.80;0.77;;;4.60;99.90;;;;;;5081472;27;20649;-74
2021/01/07 12:18:03;;;;;;;2.57;1.03;;;4.80;99.90;;;;;;5032583;28;20204;-73
2021/01/07 12:20:34;;;;;;;1.30;0.90;;;4.80;99.90;;;;;;5050364;28;20205;-74
2021/01/07 12:23:02;;;;;;;3.63;0.73;;;4.80;99.90;;;;;;5053234;28;20205;-73
2021/01/07 12:25:30;;;;;;;2.13;0.70;;;4.90;99.90;;;;;;5033503;28;20251;-73
2021/01/07 12:27:57;;;;;;;3.00;0.47;;;4.90;99.90;;;;;;5054824;28;20270;-73
2021/01/07 12:30:24;;;;;;;1.17;0.77;;;4.90;99.90;;;;;;5035011;28;20198;-73
2021/01/07 12:33:17;;;;;;;1.40;0.67;;;4.90;99.90;;;;;;5035342;28;20193;-73
2021/01/07 12:36:13;;;;;;;1.17;0.57;;;4.70;99.90;;;;;;5032127;28;20626;-74
2021/01/07 12:39:06;;;;;;;1.20;0.70;;;4.70;99.90;;;;;;5036885;28;20639;-73
2021/01/07 12:41:55;;;;;;;2.40;0.73;;;4.60;99.90;;;;;;5036154;28;20906;-73
2021/01/07 12:44:24;;;;;;;1.30;0.70;;;4.80;99.90;;;;;;5037554;28;20205;-74
2021/01/07 12:46:52;;;;;;;0.67;0.67;;;4.90;99.90;;;;;;5051324;28;20636;-73
2021/01/07 12:49:19;;;;;;;1.67;0.57;;;4.80;99.90;;;;;;5043680;28;20192;-74
2021/01/07 12:51:47;;;;;;;2.67;1.03;;;4.90;99.90;;;;;;5033328;28;20215;-72
2021/01/07 12:54:14;;;;;;;1.00;0.70;;;4.80;99.90;;;;;;5032905;28;20315;-73
2021/01/07 12:57:13;;;;;;;0.77;0.53;;;4.70;99.90;;;;;;5027424;28;20197;-74
2021/01/07 12:59:53;;;;;;;2.17;1.00;;;5.00;99.90;;;;;;5036815;28;20301;-73
2021/01/07 13:02:36;;;;;;;2.07;0.90;;;5.10;99.90;;;;;;5050963;28;20201;-73
2021/01/07 13:05:23;;;;;;;1.00;0.63;;;5.10;99.90;;;;;;5030969;28;20296;-73
2021/01/07 13:07:54;;;;;;;1.53;0.77;;;4.90;99.90;;;;;;5046433;28;20236;-73
2021/01/07 13:10:22;;;;;;;0.50;0.50;;;5.10;99.90;;;;;;5048642;28;20308;-73
2021/01/07 13:12:48;;;;;;;0.77;0.50;;;5.10;99.90;;;;;;5044249;28;20309;-72